createdAt,value
2022-08-02T00:00:16.026Z,99.90
2022-08-02T00:02:44.202Z,99.90
2022-08-02T00:05:11.808Z,99.90
2022-08-02T00:07:41.200Z,99.90
2022-08-02T00:10:09.931Z,99.90
2022-08-02T00:12:36.870Z,99.90
2022-08-02T00:15:05.061Z,99.90
2022-08-02T00:17:31.723Z,99.90
2022-08-02T00:19:58.334Z,99.90
2022-08-02T00:22:25.009Z,99.90
2022-08-02T00:24:51.573Z,99.90
2022-08-02T00:27:18.216Z,99.90
2022-08-02T00:29:52.274Z,99.90
2022-08-02T00:32:20.219Z,99.90
2022-08-02T00:34:47.104Z,99.90
2022-08-02T00:37:13.823Z,99.90
2022-08-02T00:39:42.210Z,99.90
2022-08-02T00:42:09.961Z,99.90
2022-08-02T00:44:36.851Z,99.90
2022-08-02T00:47:03.545Z,99.90
2022-08-02T00:49:30.455Z,99.90
2022-08-02T00:51:57.097Z,99.90
2022-08-02T00:54:23.882Z,99.90
2022-08-02T00:56:51.227Z,99.90
2022-08-02T00:59:18.539Z,99.90
2022-08-02T01:01:56.966Z,99.90
2022-08-02T01:04:29.761Z,99.90
2022-08-02T01:06:57.400Z,99.90
2022-08-02T01:09:24.050Z,99.90
2022-08-02T01:11:50.653Z,99.90
2022-08-02T01:14:19.054Z,99.90
2022-08-02T01:16:58.745Z,99.90
2022-08-02T01:19:31.063Z,99.90
2022-08-02T01:22:16.816Z,99.90
2022-08-02T01:25:04.224Z,99.90
2022-08-02T01:27:46.631Z,99.90
2022-08-02T01:30:14.806Z,99.90
2022-08-02T01:32:46.247Z,99.90
2022-08-02T01:35:24.772Z,99.90
2022-08-02T01:37:58.670Z,99.90
2022-08-02T01:40:32.367Z,99.90
2022-08-02T01:43:00.493Z,99.90
2022-08-02T01:45:32.703Z,99.90
2022-08-02T01:48:00.762Z,99.90
2022-08-02T01:50:33.414Z,99.90
2022-08-02T01:53:05.495Z,99.90
2022-08-02T01:55:57.573Z,99.90
2022-08-02T01:58:29.767Z,99.90
2022-08-02T02:00:58.192Z,99.90
2022-08-02T02:03:27.204Z,99.90
2022-08-02T02:05:57.328Z,99.90
2022-08-02T02:08:28.892Z,99.90
2022-08-02T02:10:57.209Z,99.90
2022-08-02T02:13:33.651Z,99.90
2022-08-02T02:16:04.690Z,99.90
2022-08-02T02:18:38.807Z,99.90
2022-08-02T02:21:05.492Z,99.90
2022-08-02T02:23:32.214Z,99.90
2022-08-02T02:26:04.238Z,99.90
2022-08-02T02:28:32.813Z,99.90
2022-08-02T02:31:07.551Z,99.90
2022-08-02T02:33:38.885Z,99.90
2022-08-02T02:36:07.774Z,99.90
2022-08-02T02:38:36.175Z,99.90
2022-08-02T02:41:04.999Z,99.90
2022-08-02T02:43:34.448Z,99.90
2022-08-02T02:46:03.529Z,99.90
2022-08-02T02:48:30.678Z,99.90
2022-08-02T02:50:58.691Z,99.90
2022-08-02T02:53:26.119Z,99.90
2022-08-02T02:56:02.361Z,99.90
2022-08-02T02:58:30.409Z,99.90
2022-08-02T03:01:16.389Z,99.90
2022-08-02T03:03:44.988Z,99.90
2022-08-02T03:06:14.795Z,99.90
2022-08-02T03:08:42.272Z,99.90
2022-08-02T03:11:10.404Z,99.90
2022-08-02T03:13:38.923Z,99.90
2022-08-02T03:16:06.531Z,99.90
2022-08-02T03:18:34.750Z,99.90
2022-08-02T03:21:02.962Z,99.90
2022-08-02T03:23:29.903Z,99.90
2022-08-02T03:25:56.608Z,99.90
2022-08-02T03:28:23.650Z,99.90
2022-08-02T03:30:50.735Z,99.90
2022-08-02T03:33:18.606Z,99.90
2022-08-02T03:35:48.047Z,99.90
2022-08-02T03:38:17.653Z,99.90
2022-08-02T03:40:45.167Z,99.90
2022-08-02T03:43:12.722Z,99.90
2022-08-02T03:45:42.890Z,99.90
2022-08-02T03:48:33.722Z,99.90
2022-08-02T03:50:59.293Z,99.90
2022-08-02T03:53:27.006Z,99.90
2022-08-02T03:55:55.844Z,99.90
2022-08-02T03:58:24.163Z,99.90
2022-08-02T04:00:53.486Z,99.90
2022-08-02T04:03:20.284Z,99.90
2022-08-02T04:06:00.758Z,99.90
2022-08-02T04:08:37.228Z,99.90
2022-08-02T04:11:23.781Z,99.90
2022-08-02T04:13:50.493Z,99.90
2022-08-02T04:16:29.022Z,99.90
2022-08-02T04:19:02.379Z,99.90
2022-08-02T04:21:41.401Z,99.90
2022-08-02T04:24:25.111Z,99.90
2022-08-02T04:26:58.113Z,99.90
2022-08-02T04:29:33.974Z,99.90
2022-08-02T04:32:01.349Z,99.90
2022-08-02T04:34:28.790Z,99.90
2022-08-02T04:36:55.427Z,99.90
2022-08-02T04:39:22.002Z,99.90
2022-08-02T04:41:48.588Z,99.90
2022-08-02T04:44:15.363Z,99.90
2022-08-02T04:46:43.608Z,99.90
2022-08-02T04:49:10.450Z,99.90
2022-08-02T04:51:39.806Z,99.90
2022-08-02T04:54:09.942Z,99.90
2022-08-02T04:56:37.896Z,99.90
2022-08-02T04:59:05.125Z,99.90
2022-08-02T05:01:32.220Z,99.90
2022-08-02T05:03:59.234Z,99.90
2022-08-02T05:06:25.791Z,99.90
2022-08-02T05:08:53.404Z,99.90
2022-08-02T05:11:21.864Z,99.90
2022-08-02T05:13:58.935Z,99.90
2022-08-02T05:16:31.525Z,99.90
2022-08-02T05:18:59.957Z,99.90
2022-08-02T05:21:26.657Z,99.90
2022-08-02T05:23:53.263Z,99.90
2022-08-02T05:26:19.927Z,99.90
2022-08-02T05:28:46.519Z,99.90
2022-08-02T05:31:13.604Z,99.90
2022-08-02T05:33:40.550Z,99.90
2022-08-02T05:36:09.258Z,99.90
2022-08-02T05:38:37.241Z,99.90
2022-08-02T05:41:05.211Z,99.90
2022-08-02T05:43:32.107Z,99.90
2022-08-02T05:45:58.868Z,99.90
2022-08-02T05:48:31.107Z,99.90
2022-08-02T05:51:05.227Z,99.90
2022-08-02T05:54:10.315Z,99.90
2022-08-02T05:57:06.945Z,99.90
2022-08-02T06:00:00.988Z,99.90
2022-08-02T06:02:35.756Z,99.90
2022-08-02T06:05:10.319Z,99.90
2022-08-02T06:07:38.163Z,99.90
2022-08-02T06:10:06.525Z,99.90
2022-08-02T06:12:41.076Z,99.90
2022-08-02T06:15:08.202Z,99.90
2022-08-02T06:17:35.506Z,99.90
2022-08-02T06:20:11.826Z,99.90
2022-08-02T06:22:42.815Z,99.90
2022-08-02T06:25:11.500Z,99.90
2022-08-02T06:28:00.026Z,99.90
2022-08-02T06:30:27.712Z,99.90
2022-08-02T06:32:54.667Z,99.90
2022-08-02T06:35:21.619Z,99.90
2022-08-02T06:37:58.929Z,99.90
2022-08-02T06:40:32.193Z,99.90
2022-08-02T06:43:23.276Z,99.90
2022-08-02T06:45:49.946Z,99.90
2022-08-02T08:14:57.705Z,99.90
2022-08-02T08:17:24.543Z,99.90
2022-08-02T08:19:52.848Z,99.90
2022-08-02T08:22:20.730Z,99.90
2022-08-02T08:24:48.457Z,99.90
2022-08-02T08:27:16.062Z,99.90
2022-08-02T08:29:43.649Z,99.90
2022-08-02T08:34:48.246Z,99.90
2022-08-02T08:37:18.343Z,99.90
2022-08-02T08:39:56.550Z,99.90
2022-08-02T08:42:24.371Z,99.90
2022-08-02T08:44:51.413Z,99.90
2022-08-02T08:47:19.126Z,99.90
2022-08-02T10:38:03.317Z,99.90
2022-08-02T10:40:50.762Z,99.90
2022-08-02T10:43:32.445Z,99.90
2022-08-02T10:46:21.549Z,99.90
2022-08-02T10:52:02.523Z,99.90
2022-08-02T10:54:31.980Z,99.90
2022-08-02T10:57:01.399Z,99.90
2022-08-02T10:59:32.182Z,99.90
2022-08-02T11:02:04.138Z,99.90
2022-08-02T11:04:36.849Z,99.90
2022-08-02T11:07:11.733Z,99.90
2022-08-02T11:09:38.449Z,99.90
2022-08-02T11:12:18.094Z,99.90
2022-08-02T11:15:00.287Z,99.90
2022-08-02T11:17:38.104Z,99.90
2022-08-02T11:20:08.862Z,99.90
2022-08-02T11:22:35.722Z,99.90
2022-08-02T11:25:48.477Z,99.90
2022-08-02T11:28:18.372Z,99.90
2022-08-02T11:30:57.209Z,99.90
2022-08-02T11:33:31.095Z,99.90
2022-08-02T11:36:02.653Z,99.90
2022-08-02T11:38:29.433Z,99.90
2022-08-02T11:40:57.248Z,99.90
2022-08-02T11:43:27.001Z,99.90
2022-08-02T11:48:33.306Z,99.90
2022-08-02T11:51:14.139Z,99.90
2022-08-02T11:53:54.583Z,99.90
2022-08-02T11:56:35.058Z,99.90
2022-08-02T11:59:05.676Z,99.90
2022-08-02T12:01:44.794Z,99.90
2022-08-02T12:04:16.986Z,99.90
2022-08-02T12:06:43.905Z,99.90
2022-08-02T12:09:18.680Z,99.90
2022-08-02T12:11:49.967Z,99.90
2022-08-02T12:14:17.115Z,99.90
2022-08-02T12:17:02.222Z,99.90
2022-08-02T12:19:29.411Z,99.90
2022-08-02T12:22:11.191Z,99.90
2022-08-02T12:24:39.660Z,99.90
2022-08-02T12:27:07.429Z,99.90
2022-08-02T12:29:57.816Z,99.90
2022-08-02T12:32:25.016Z,99.90
2022-08-02T12:45:22.702Z,99.90
2022-08-02T12:47:52.287Z,99.90
2022-08-02T12:50:22.075Z,99.90
2022-08-02T12:52:50.327Z,99.90
2022-08-02T12:55:20.965Z,99.90
2022-08-02T12:58:01.886Z,99.90
2022-08-02T13:00:30.127Z,99.90
2022-08-02T13:02:58.563Z,99.90
2022-08-02T13:05:26.497Z,99.90
2022-08-02T13:07:53.289Z,99.90
2022-08-02T13:10:20.961Z,99.40
2022-08-02T13:12:47.638Z,99.90
2022-08-02T13:15:49.030Z,98.90
2022-08-02T13:18:01.484Z,99.90
2022-08-02T13:20:29.100Z,99.90
2022-08-02T13:22:56.532Z,98.70
2022-08-02T13:25:30.867Z,98.70
2022-08-02T13:27:57.435Z,98.20
2022-08-02T13:30:24.026Z,97.90
2022-08-02T13:32:50.611Z,96.80
2022-08-02T13:35:18.045Z,96.70
2022-08-02T13:37:45.405Z,96.40
2022-08-02T13:40:21.787Z,96.80
2022-08-02T13:42:49.157Z,97.60
2022-08-02T13:45:16.249Z,97.10
2022-08-02T13:48:04.634Z,96.60
2022-08-02T13:50:31.458Z,95.60
2022-08-02T13:52:58.043Z,95.70
2022-08-02T13:55:24.939Z,96.40
2022-08-02T13:57:53.731Z,96.30
2022-08-02T14:00:35.491Z,96.40
2022-08-02T14:03:04.114Z,96.00
2022-08-02T14:05:39.523Z,96.70
2022-08-02T14:08:20.614Z,97.00
2022-08-02T14:10:47.954Z,95.80
2022-08-02T14:13:14.670Z,95.40
2022-08-02T14:15:41.502Z,95.60
2022-08-02T14:18:08.264Z,96.10
2022-08-02T14:20:34.930Z,95.40
2022-08-02T14:23:01.514Z,95.20
2022-08-02T14:25:28.101Z,95.00
2022-08-02T14:27:54.701Z,95.80
2022-08-02T14:30:23.175Z,96.50
2022-08-02T14:32:50.899Z,95.00
2022-08-02T14:35:17.595Z,95.30
2022-08-02T14:37:44.190Z,93.90
2022-08-02T14:40:31.264Z,94.70
2022-08-02T14:42:58.360Z,94.90
2022-08-02T14:45:26.159Z,95.50
2022-08-02T14:48:03.659Z,94.50
2022-08-02T14:50:30.711Z,94.80
2022-08-02T14:52:57.290Z,94.80
2022-08-02T14:55:23.904Z,94.60
2022-08-02T14:57:50.965Z,94.20
2022-08-02T15:00:17.920Z,94.20
2022-08-02T15:02:44.712Z,94.40
2022-08-02T15:05:11.389Z,93.80
2022-08-02T15:07:42.530Z,93.50
2022-08-02T15:10:10.873Z,93.00
2022-08-02T15:12:37.445Z,93.10
2022-08-02T15:15:04.415Z,93.40
2022-08-02T15:17:31.838Z,94.10
2022-08-02T15:20:02.012Z,93.90
2022-08-02T15:22:37.955Z,93.50
2022-08-02T15:25:04.981Z,93.10
2022-08-02T15:27:41.434Z,93.00
2022-08-02T15:30:08.950Z,92.80
2022-08-02T15:32:35.527Z,92.80
2022-08-02T15:35:02.201Z,92.90
2022-08-02T15:37:30.950Z,93.50
2022-08-02T15:39:58.882Z,92.70
2022-08-02T15:42:30.545Z,92.60
2022-08-02T15:44:57.772Z,93.40
2022-08-02T15:47:24.359Z,93.00
2022-08-02T15:49:50.968Z,92.80
2022-08-02T15:52:17.603Z,93.50
2022-08-02T15:54:44.224Z,93.00
2022-08-02T15:57:10.966Z,93.20
2022-08-02T16:29:26.699Z,84.50
2022-08-02T16:32:00.031Z,85.80
2022-08-02T16:34:26.617Z,83.70
2022-08-02T16:36:53.255Z,82.90
2022-08-02T16:39:19.828Z,84.40
2022-08-02T16:41:52.005Z,84.90
2022-08-02T16:44:29.288Z,86.30
2022-08-02T16:47:11.352Z,86.10
2022-08-02T16:50:05.557Z,95.90
2022-08-02T16:52:26.680Z,99.90
2022-08-02T16:54:53.263Z,99.90
2022-08-02T16:57:20.284Z,99.90
2022-08-02T16:59:57.335Z,99.90
2022-08-02T17:02:25.649Z,91.70
2022-08-02T17:04:52.372Z,91.70
2022-08-02T17:08:08.097Z,92.20
2022-08-02T17:10:09.373Z,92.30
2022-08-02T17:12:36.926Z,91.90
2022-08-02T17:16:07.899Z,91.90
2022-08-02T17:17:51.687Z,92.70
2022-08-02T17:20:18.519Z,93.50
2022-08-02T17:22:45.777Z,92.60
2022-08-02T17:25:15.886Z,93.50
2022-08-02T17:27:44.166Z,93.00
2022-08-02T17:30:12.873Z,93.60
2022-08-02T17:32:40.071Z,93.30
2022-08-02T17:35:12.521Z,93.50
2022-08-02T17:37:42.204Z,93.70
2022-08-02T17:40:09.643Z,93.70
2022-08-02T17:42:36.621Z,93.90
2022-08-02T17:45:16.572Z,94.30
2022-08-02T17:47:43.689Z,95.00
2022-08-02T17:52:58.368Z,94.20
2022-08-02T17:55:25.340Z,95.30
2022-08-02T17:57:57.439Z,99.90
2022-08-02T18:02:55.366Z,94.70
2022-08-02T18:05:39.219Z,96.70
2022-08-02T18:08:08.810Z,95.70
2022-08-02T18:10:35.775Z,95.80
2022-08-02T18:13:03.647Z,99.00
2022-08-02T18:18:19.305Z,96.50
2022-08-02T18:20:57.226Z,97.30
2022-08-02T18:23:24.289Z,99.90
2022-08-02T18:25:55.154Z,98.70
2022-08-02T18:30:53.821Z,99.70
2022-08-02T18:33:58.786Z,99.90
2022-08-02T18:36:08.059Z,99.90
2022-08-02T18:38:34.699Z,99.90
2022-08-02T18:41:06.915Z,99.90
2022-08-02T18:43:43.734Z,99.90
2022-08-02T18:46:15.556Z,99.90
2022-08-02T18:48:46.888Z,99.90
2022-08-02T18:51:15.963Z,99.90
2022-08-02T18:53:43.222Z,99.90
2022-08-02T18:59:03.184Z,99.90
2022-08-02T19:01:32.687Z,99.90
2022-08-02T19:04:02.850Z,99.90
2022-08-02T19:06:30.039Z,99.90
2022-08-02T19:09:05.684Z,99.90
2022-08-02T19:11:38.426Z,99.90
2022-08-02T19:14:07.930Z,99.90
2022-08-02T19:16:36.836Z,99.90
2022-08-02T19:19:05.530Z,99.90
2022-08-02T19:22:26.582Z,99.90
2022-08-02T19:24:19.123Z,99.90
2022-08-02T19:26:51.647Z,99.90
2022-08-02T19:29:42.166Z,99.90
2022-08-02T19:32:40.550Z,99.90
2022-08-02T19:34:55.338Z,99.90
2022-08-02T19:37:21.984Z,99.90
2022-08-02T19:39:48.698Z,99.90
2022-08-02T19:42:16.890Z,99.90
2022-08-02T19:44:45.919Z,99.90
2022-08-02T19:47:19.013Z,99.90
2022-08-02T19:49:48.778Z,99.90
2022-08-02T19:52:21.110Z,99.90
2022-08-02T19:54:56.097Z,99.90
2022-08-02T19:57:25.237Z,99.90
2022-08-02T19:59:52.584Z,99.90
2022-08-02T20:02:21.104Z,99.90
2022-08-02T20:04:49.943Z,99.90
2022-08-02T20:07:48.231Z,99.90
2022-08-02T20:10:10.882Z,99.90
2022-08-02T20:12:38.849Z,99.90
2022-08-02T20:15:14.414Z,99.90
2022-08-02T20:17:47.304Z,99.90
2022-08-02T20:20:14.740Z,99.90
2022-08-02T20:22:59.925Z,99.90
2022-08-02T20:25:28.861Z,99.90
2022-08-02T20:27:55.771Z,99.90
2022-08-02T20:30:25.522Z,99.90
2022-08-02T20:32:58.897Z,99.90
2022-08-02T20:35:41.726Z,99.90
2022-08-02T20:38:09.762Z,99.90
2022-08-02T20:40:38.733Z,99.90
2022-08-02T20:43:05.348Z,99.90
2022-08-02T20:45:34.714Z,99.90
2022-08-02T20:48:01.338Z,99.90
2022-08-02T20:50:46.714Z,99.90
2022-08-02T20:53:24.071Z,99.90
2022-08-02T20:55:54.788Z,99.90
2022-08-02T20:58:26.928Z,99.90
2022-08-02T21:00:58.456Z,99.90
2022-08-02T21:03:25.332Z,99.90
2022-08-02T21:06:07.737Z,99.90
2022-08-02T21:08:34.786Z,99.90
2022-08-02T21:11:01.441Z,99.90
2022-08-02T21:13:47.290Z,99.90
2022-08-02T21:16:23.051Z,99.90
2022-08-02T21:18:55.608Z,99.90
2022-08-02T21:21:26.541Z,99.90
2022-08-02T21:23:54.634Z,99.90
2022-08-02T21:26:27.796Z,99.90
2022-08-02T21:28:55.436Z,99.90
2022-08-02T21:31:22.198Z,99.90
2022-08-02T21:33:58.651Z,99.90
2022-08-02T21:36:31.085Z,99.90
2022-08-02T21:39:04.458Z,99.90
2022-08-02T21:41:39.642Z,99.90
2022-08-02T21:44:17.887Z,99.90
2022-08-02T21:46:49.291Z,99.90
2022-08-02T21:49:20.889Z,99.90
2022-08-02T21:51:54.557Z,99.90
2022-08-02T21:54:21.873Z,99.90
2022-08-02T21:56:52.011Z,99.90
2022-08-02T21:59:25.910Z,99.90
2022-08-02T22:01:56.479Z,99.90
2022-08-02T22:04:24.865Z,99.90
2022-08-02T22:06:52.663Z,99.90
2022-08-02T22:09:42.065Z,99.90
2022-08-02T22:12:12.673Z,99.90
2022-08-02T22:14:49.570Z,99.90
2022-08-02T22:17:20.284Z,99.90
2022-08-02T22:19:53.988Z,99.90
2022-08-02T22:22:28.439Z,99.90
2022-08-02T22:24:56.703Z,99.90
2022-08-02T22:27:24.051Z,99.90
2022-08-02T22:30:11.093Z,99.90
2022-08-02T22:32:56.549Z,99.90
2022-08-02T22:35:23.291Z,99.90
2022-08-02T22:38:14.954Z,99.90
2022-08-02T22:40:36.648Z,99.90
2022-08-02T22:43:03.238Z,99.90
2022-08-02T22:45:30.561Z,99.90
2022-08-02T22:48:03.613Z,99.90
2022-08-02T22:50:30.379Z,99.90
2022-08-02T22:52:57.337Z,99.90
2022-08-02T22:55:24.251Z,99.90
2022-08-02T22:57:58.714Z,99.90
2022-08-02T22:58:58.053Z,97.80
2022-08-02T22:59:00.020Z,99.90
2022-08-02T23:00:26.262Z,99.90
2022-08-02T23:02:52.913Z,99.90
2022-08-02T23:05:20.821Z,99.90
2022-08-02T23:07:47.553Z,99.90
2022-08-02T23:10:14.381Z,99.90
2022-08-02T23:12:41.056Z,99.90
2022-08-02T23:15:08.385Z,99.90
2022-08-02T23:17:53.482Z,99.90
2022-08-02T23:20:20.502Z,99.90
2022-08-02T23:22:47.106Z,99.90
2022-08-02T23:25:14.536Z,99.90
2022-08-02T23:27:50.209Z,99.90
2022-08-02T23:30:17.741Z,99.90
2022-08-02T23:32:44.392Z,99.90
2022-08-02T23:35:17.264Z,99.90
2022-08-02T23:38:00.375Z,99.90
2022-08-02T23:40:39.250Z,99.90
2022-08-02T23:43:13.445Z,99.90
2022-08-02T23:45:41.485Z,99.90
2022-08-02T23:48:08.086Z,99.90
2022-08-02T23:50:34.674Z,99.90
2022-08-02T23:53:01.239Z,99.90
2022-08-02T23:55:27.817Z,99.90
2022-08-02T23:57:54.416Z,99.90
